createdAt,value
2022-08-05T00:01:27.740Z,99.90
2022-08-05T00:03:57.084Z,99.90
2022-08-05T00:06:32.329Z,99.90
2022-08-05T00:09:00.461Z,99.90
2022-08-05T00:11:34.633Z,99.90
2022-08-05T00:14:02.428Z,99.90
2022-08-05T00:16:52.386Z,99.90
2022-08-05T00:19:24.966Z,99.90
2022-08-05T00:22:00.549Z,99.90
2022-08-05T00:24:31.224Z,99.90
2022-08-05T00:26:58.791Z,99.90
2022-08-05T00:29:26.101Z,99.90
2022-08-05T00:32:13.436Z,99.90
2022-08-05T00:34:55.421Z,99.90
2022-08-05T00:37:35.583Z,99.90
2022-08-05T00:40:14.674Z,99.90
2022-08-05T00:42:49.066Z,99.90
2022-08-05T00:45:16.628Z,99.90
2022-08-05T00:48:05.208Z,99.90
2022-08-05T00:50:32.654Z,99.90
2022-08-05T00:52:59.266Z,99.90
2022-08-05T00:55:34.225Z,99.90
2022-08-05T00:58:12.277Z,99.90
2022-08-05T01:00:40.023Z,99.90
2022-08-05T01:03:07.801Z,99.90
2022-08-05T01:05:34.905Z,99.90
2022-08-05T01:08:43.218Z,99.90
2022-08-05T01:10:52.575Z,99.90
2022-08-05T01:13:57.705Z,99.90
2022-08-05T01:16:26.277Z,99.90
2022-08-05T01:18:56.326Z,99.90
2022-08-05T01:21:37.918Z,1.00
2022-08-05T01:24:13.157Z,1.00
2022-08-05T01:26:48.496Z,1.00
2022-08-05T01:29:23.019Z,1.00
2022-08-05T01:31:51.312Z,1.00
2022-08-05T01:34:28.332Z,1.00
2022-08-05T01:37:00.468Z,1.00
2022-08-05T01:39:36.854Z,1.00
2022-08-05T01:42:13.908Z,1.00
2022-08-05T01:44:42.218Z,1.00
2022-08-05T01:47:09.655Z,1.00
2022-08-05T01:50:00.287Z,1.00
2022-08-05T01:52:22.848Z,1.00
2022-08-05T01:54:53.007Z,1.00
2022-08-05T01:58:10.550Z,1.00
2022-08-05T02:00:12.424Z,1.00
2022-08-05T02:02:46.492Z,1.00
2022-08-05T02:05:23.528Z,1.00
2022-08-05T02:07:57.893Z,1.00
2022-08-05T02:10:28.913Z,50.30
2022-08-05T02:13:03.142Z,99.90
2022-08-05T02:15:34.907Z,1.00
2022-08-05T02:18:32.692Z,1.00
2022-08-05T02:21:03.439Z,1.00
2022-08-05T02:23:33.761Z,1.00
2022-08-05T02:26:03.098Z,25.40
2022-08-05T02:28:33.083Z,99.90
2022-08-05T02:31:05.935Z,99.90
2022-08-05T02:33:42.038Z,99.90
2022-08-05T02:36:13.683Z,99.90
2022-08-05T02:38:42.065Z,99.90
2022-08-05T02:41:17.139Z,99.90
2022-08-05T02:44:06.378Z,1.00
2022-08-05T02:46:31.321Z,1.00
2022-08-05T02:48:58.004Z,1.00
2022-08-05T02:51:48.432Z,1.00
2022-08-05T02:54:11.855Z,99.90
2022-08-05T02:56:58.459Z,1.00
2022-08-05T02:59:27.109Z,99.90
2022-08-05T03:01:58.132Z,99.90
2022-08-05T03:04:25.373Z,99.90
2022-08-05T03:06:54.853Z,99.90
2022-08-05T03:09:26.958Z,1.00
2022-08-05T03:12:03.758Z,1.00
2022-08-05T03:14:30.346Z,1.00
2022-08-05T03:16:57.280Z,1.00
2022-08-05T03:19:34.134Z,1.00
2022-08-05T03:22:04.729Z,1.00
2022-08-05T03:24:31.849Z,1.00
2022-08-05T03:27:00.458Z,1.00
2022-08-05T03:29:45.325Z,66.00
2022-08-05T03:32:15.364Z,99.90
2022-08-05T03:34:42.534Z,99.90
2022-08-05T03:37:17.579Z,99.90
2022-08-05T03:39:58.936Z,99.90
2022-08-05T03:42:28.865Z,99.90
2022-08-05T03:44:55.817Z,99.90
2022-08-05T03:47:24.106Z,99.90
2022-08-05T03:49:52.470Z,99.90
2022-08-05T03:52:49.297Z,99.90
2022-08-05T03:56:04.960Z,99.90
2022-08-05T03:58:04.540Z,7.10
2022-08-05T04:00:32.274Z,25.90
2022-08-05T04:02:59.585Z,1.00
2022-08-05T04:05:27.981Z,1.00
2022-08-05T04:08:00.836Z,1.00
2022-08-05T04:10:28.427Z,1.00
2022-08-05T04:12:59.245Z,1.00
2022-08-05T04:15:33.157Z,12.20
2022-08-05T04:18:03.835Z,1.00
2022-08-05T04:20:33.681Z,1.00
2022-08-05T04:23:00.290Z,1.00
2022-08-05T04:25:56.562Z,84.30
2022-08-05T04:28:14.339Z,1.00
2022-08-05T04:30:41.658Z,1.00
2022-08-05T04:33:09.574Z,1.00
2022-08-05T04:36:16.716Z,1.00
2022-08-05T04:38:22.732Z,1.00
2022-08-05T04:41:07.318Z,1.00
2022-08-05T04:43:36.048Z,1.00
2022-08-05T04:46:04.524Z,99.90
2022-08-05T04:48:31.778Z,99.90
2022-08-05T04:51:02.059Z,16.70
2022-08-05T04:53:33.675Z,99.90
2022-08-05T04:56:33.983Z,19.10
2022-08-05T04:58:49.248Z,1.00
2022-08-05T05:01:16.003Z,99.90
2022-08-05T05:04:02.446Z,59.10
2022-08-05T05:06:40.241Z,83.10
2022-08-05T05:09:14.135Z,99.90
2022-08-05T05:11:55.522Z,1.00
2022-08-05T05:14:31.344Z,99.90
2022-08-05T05:16:59.711Z,99.90
2022-08-05T05:19:27.398Z,99.90
2022-08-05T05:22:03.604Z,99.90
2022-08-05T05:24:56.916Z,99.90
2022-08-05T05:27:45.349Z,99.90
2022-08-05T05:30:29.522Z,99.90
2022-08-05T05:33:00.736Z,1.00
2022-08-05T05:35:34.216Z,1.00
2022-08-05T05:38:05.511Z,1.00
2022-08-05T05:40:32.488Z,1.00
2022-08-05T05:43:02.089Z,1.00
2022-08-05T05:45:29.112Z,99.90
2022-08-05T05:48:06.852Z,1.00
2022-08-05T05:50:44.426Z,1.00
2022-08-05T05:53:22.549Z,1.00
2022-08-05T05:56:01.411Z,99.90
2022-08-05T05:58:32.068Z,28.20
2022-08-05T06:01:12.153Z,99.90
2022-08-05T06:04:01.285Z,99.90
2022-08-05T06:06:27.923Z,99.90
2022-08-05T06:08:57.522Z,1.00
2022-08-05T06:11:24.299Z,99.90
2022-08-05T06:13:55.336Z,99.90
2022-08-05T06:16:30.903Z,99.90
2022-08-05T06:19:00.218Z,99.90
2022-08-05T06:21:36.844Z,99.90
2022-08-05T06:24:11.584Z,1.00
2022-08-05T06:26:39.473Z,76.70
2022-08-05T06:29:25.082Z,46.20
2022-08-05T06:32:05.722Z,48.00
2022-08-05T06:34:48.287Z,99.90
2022-08-05T06:37:55.547Z,99.90
2022-08-05T06:40:07.230Z,1.00
2022-08-05T06:42:33.848Z,1.00
2022-08-05T06:45:00.430Z,1.00
2022-08-05T06:48:36.839Z,1.00
2022-08-05T06:50:18.885Z,1.00
2022-08-05T06:52:58.663Z,1.00
2022-08-05T06:55:36.252Z,1.00
2022-08-05T06:58:19.925Z,1.00
2022-08-05T07:00:50.230Z,1.00
2022-08-05T07:03:16.886Z,1.00
2022-08-05T07:05:43.650Z,1.00
2022-08-05T07:08:12.904Z,99.90
2022-08-05T07:10:39.790Z,99.90
2022-08-05T07:13:59.530Z,99.90
2022-08-05T07:18:00.691Z,99.90
2022-08-05T07:20:16.753Z,99.90
2022-08-05T07:22:17.778Z,99.90
2022-08-05T07:24:53.602Z,27.00
2022-08-05T07:27:21.584Z,1.00
2022-08-05T07:30:27.214Z,1.00
2022-08-05T07:32:35.518Z,1.00
2022-08-05T07:36:01.554Z,1.00
2022-08-05T07:37:56.798Z,1.00
2022-08-05T07:40:26.801Z,1.00
2022-08-05T07:42:59.303Z,1.00
2022-08-05T07:45:58.156Z,1.00
2022-08-05T07:49:03.821Z,1.00
2022-08-05T07:51:05.434Z,1.00
2022-08-05T07:53:50.094Z,1.00
2022-08-05T07:57:00.233Z,99.90
2022-08-05T07:59:04.248Z,1.00
2022-08-05T08:01:35.449Z,1.00
2022-08-05T08:04:08.311Z,1.00
2022-08-05T08:06:35.030Z,1.00
2022-08-05T08:09:01.953Z,1.00
2022-08-05T08:11:48.252Z,1.00
2022-08-05T08:14:18.287Z,1.00
2022-08-05T08:16:51.223Z,1.00
2022-08-05T08:20:21.309Z,1.00
2022-08-05T08:22:07.169Z,1.00
2022-08-05T08:24:51.376Z,1.00
2022-08-05T08:27:18.639Z,1.00
2022-08-05T08:30:06.675Z,1.00
2022-08-05T08:32:34.596Z,1.00
2022-08-05T08:35:07.403Z,1.00
2022-08-05T08:37:40.427Z,1.00
2022-08-05T08:40:12.100Z,1.00
2022-08-05T08:42:39.808Z,1.00
2022-08-05T08:45:26.685Z,99.90
2022-08-05T08:48:10.526Z,1.00
2022-08-05T08:51:21.929Z,1.00
2022-08-05T08:53:28.850Z,1.00
2022-08-05T08:56:04.459Z,1.00
2022-08-05T08:58:37.644Z,1.00
2022-08-05T09:01:16.311Z,99.90
2022-08-05T09:03:45.816Z,99.90
2022-08-05T09:06:15.810Z,99.90
2022-08-05T09:08:43.751Z,99.90
2022-08-05T09:11:13.863Z,1.00
2022-08-05T09:14:01.208Z,1.00
2022-08-05T09:16:27.874Z,1.00
2022-08-05T09:18:55.340Z,1.00
2022-08-05T09:22:23.204Z,1.00
2022-08-05T09:24:15.445Z,1.00
2022-08-05T09:26:43.728Z,1.00
2022-08-05T09:29:10.969Z,1.00
2022-08-05T09:32:40.246Z,1.00
2022-08-05T09:34:50.589Z,1.00
2022-08-05T09:37:18.310Z,1.00
2022-08-05T09:40:05.158Z,1.00
2022-08-05T09:42:38.915Z,1.00
2022-08-05T09:46:05.183Z,1.00
2022-08-05T09:47:56.754Z,1.00
2022-08-05T09:50:38.591Z,1.00
2022-08-05T09:53:17.171Z,1.00
2022-08-05T09:56:03.674Z,1.00
2022-08-05T09:58:31.198Z,1.00
2022-08-05T10:00:57.830Z,1.00
2022-08-05T10:03:25.463Z,1.00
2022-08-05T10:06:15.609Z,99.90
2022-08-05T10:08:42.622Z,1.00
2022-08-05T10:11:15.744Z,1.00
2022-08-05T10:13:47.586Z,99.90
2022-08-05T10:16:28.020Z,99.90
2022-08-05T10:18:55.085Z,99.90
2022-08-05T10:21:23.682Z,99.90
2022-08-05T10:23:59.329Z,99.90
2022-08-05T10:26:31.756Z,99.90
2022-08-05T10:29:00.358Z,99.90
2022-08-05T10:32:54.224Z,99.90
2022-08-05T10:34:13.704Z,99.90
2022-08-05T10:36:41.191Z,99.90
2022-08-05T10:39:59.170Z,99.90
2022-08-05T10:42:18.820Z,99.90
2022-08-05T10:44:59.198Z,99.90
2022-08-05T10:47:33.277Z,99.90
2022-08-05T10:50:20.678Z,99.90
2022-08-05T10:52:52.367Z,99.90
2022-08-05T10:55:25.316Z,99.90
2022-08-05T10:58:08.827Z,99.90
2022-08-05T11:00:35.574Z,99.90
2022-08-05T11:03:25.377Z,99.90
2022-08-05T11:06:15.913Z,99.90
2022-08-05T11:09:03.205Z,99.90
2022-08-05T11:11:52.019Z,99.90
2022-08-05T11:18:07.687Z,99.90
2022-08-05T11:20:34.084Z,99.90
2022-08-05T11:23:05.840Z,99.90
2022-08-05T11:26:05.322Z,99.90
2022-08-05T11:28:26.902Z,1.00
2022-08-05T11:30:58.229Z,1.00
2022-08-05T11:33:43.886Z,1.00
2022-08-05T11:36:15.087Z,1.00
2022-08-05T11:38:51.029Z,1.00
2022-08-05T11:41:58.175Z,1.00
2022-08-05T11:44:21.540Z,1.00
2022-08-05T11:47:10.461Z,1.00
2022-08-05T11:49:42.820Z,1.00
2022-08-05T11:52:11.897Z,1.00
2022-08-05T11:54:40.736Z,1.00
2022-08-05T11:57:24.410Z,1.00
2022-08-05T11:59:52.355Z,1.00
2022-08-05T12:02:30.666Z,1.00
2022-08-05T12:05:07.438Z,1.00
2022-08-05T12:08:08.807Z,1.00
2022-08-05T12:10:22.701Z,1.00
2022-08-05T12:12:59.849Z,1.00
2022-08-05T12:15:35.863Z,1.00
2022-08-05T12:18:10.766Z,1.00
2022-08-05T12:20:39.170Z,1.00
2022-08-05T12:23:09.755Z,1.00
2022-08-05T12:25:57.006Z,1.00
2022-08-05T12:28:36.984Z,1.00
2022-08-05T12:31:04.392Z,1.00
2022-08-05T12:33:36.722Z,1.00
2022-08-05T12:36:09.361Z,1.00
2022-08-05T12:38:40.156Z,1.00
2022-08-05T12:41:13.146Z,1.00
2022-08-05T12:43:56.730Z,1.00
2022-08-05T12:46:29.037Z,1.00
2022-08-05T12:49:13.905Z,1.00
2022-08-05T12:52:10.842Z,1.00
2022-08-05T12:54:31.689Z,1.00
2022-08-05T12:56:58.753Z,1.00
2022-08-05T12:59:27.682Z,1.00
2022-08-05T13:02:12.505Z,1.00
2022-08-05T13:04:41.622Z,1.00
2022-08-05T13:07:35.804Z,1.00
2022-08-05T13:10:10.007Z,1.00
2022-08-05T13:12:42.707Z,1.00
2022-08-05T13:15:41.709Z,1.00
2022-08-05T13:18:18.824Z,1.00
2022-08-05T13:20:47.110Z,1.00
2022-08-05T13:23:13.737Z,1.00
2022-08-05T13:25:59.468Z,1.00
2022-08-05T13:28:27.810Z,1.00
2022-08-05T13:30:54.443Z,1.00
2022-08-05T13:34:21.551Z,1.00
2022-08-05T13:36:09.153Z,1.00
2022-08-05T13:38:38.447Z,1.00
2022-08-05T13:41:13.137Z,1.00
2022-08-05T13:43:45.891Z,1.00
2022-08-05T13:46:37.940Z,1.00
2022-08-05T13:49:10.034Z,1.00
2022-08-05T13:51:41.203Z,1.00
2022-08-05T13:54:12.819Z,1.00
2022-08-05T13:56:45.252Z,1.00
2022-08-05T13:59:23.971Z,1.00
2022-08-05T14:02:01.114Z,1.00
2022-08-05T14:04:49.626Z,1.00
2022-08-05T14:07:55.400Z,1.00
2022-08-05T14:10:05.958Z,1.00
2022-08-05T14:12:35.299Z,1.00
2022-08-05T14:16:03.868Z,1.00
2022-08-05T14:17:48.873Z,1.00
2022-08-05T14:20:17.415Z,99.90
2022-08-05T14:22:50.107Z,99.90
2022-08-05T14:25:21.840Z,99.90
2022-08-05T14:27:49.445Z,99.90
2022-08-05T14:30:20.460Z,99.90
2022-08-05T14:32:48.750Z,99.90
2022-08-05T14:35:16.188Z,99.90
2022-08-05T14:37:52.205Z,99.90
2022-08-05T14:40:24.425Z,99.90
2022-08-05T14:42:51.528Z,99.90
2022-08-05T14:45:18.461Z,99.90
2022-08-05T14:48:03.830Z,99.90
2022-08-05T14:50:31.966Z,99.90
2022-08-05T14:52:59.518Z,99.90
2022-08-05T14:55:28.526Z,99.90
2022-08-05T14:58:12.162Z,99.90
2022-08-05T15:00:58.932Z,99.90
2022-08-05T15:03:34.042Z,99.90
2022-08-05T15:06:12.858Z,99.90
2022-08-05T15:09:01.264Z,99.90
2022-08-05T15:11:52.921Z,99.90
2022-08-05T15:14:33.323Z,99.90
2022-08-05T15:17:01.780Z,99.90
2022-08-05T15:19:30.752Z,99.90
2022-08-05T15:21:58.020Z,99.90
2022-08-05T15:24:27.393Z,99.90
2022-08-05T15:26:53.972Z,99.90
2022-08-05T15:29:22.779Z,99.90
2022-08-05T15:31:52.783Z,99.90
2022-08-05T15:34:32.609Z,99.90
2022-08-05T15:37:04.899Z,99.90
2022-08-05T15:41:01.462Z,99.90
2022-08-05T15:42:55.230Z,99.90
2022-08-05T15:45:07.468Z,99.90
2022-08-05T15:47:36.983Z,99.90
2022-08-05T15:50:05.906Z,99.90
2022-08-05T15:52:54.725Z,99.90
2022-08-05T15:55:24.677Z,99.90
2022-08-05T15:57:51.970Z,99.90
2022-08-05T16:00:32.767Z,99.90
2022-08-05T16:03:05.503Z,99.90
2022-08-05T16:05:32.174Z,99.90
2022-08-05T16:07:58.755Z,99.90
2022-08-05T16:10:26.817Z,99.90
2022-08-05T16:12:53.778Z,99.90
2022-08-05T16:15:23.062Z,99.90
2022-08-05T16:17:57.987Z,99.90
2022-08-05T16:20:25.193Z,99.90
2022-08-05T16:22:51.795Z,99.90
2022-08-05T16:25:18.399Z,99.90
2022-08-05T16:28:00.987Z,99.90
2022-08-05T16:30:32.384Z,99.90
2022-08-05T16:32:59.074Z,99.90
2022-08-05T16:35:28.313Z,99.90
2022-08-05T16:38:03.553Z,99.90
2022-08-05T16:40:47.747Z,99.90
2022-08-05T16:43:18.221Z,99.90
2022-08-05T16:46:06.235Z,99.90
2022-08-05T16:48:33.240Z,99.90
2022-08-05T16:51:02.127Z,99.90
2022-08-05T16:53:32.257Z,99.90
2022-08-05T16:56:17.290Z,99.90
2022-08-05T16:58:43.922Z,99.90
2022-08-05T17:01:10.797Z,99.90
2022-08-05T17:03:37.895Z,99.90
2022-08-05T17:06:05.642Z,99.90
2022-08-05T17:08:33.791Z,99.90
2022-08-05T17:11:03.547Z,99.90
2022-08-05T17:13:37.375Z,99.90
2022-08-05T17:16:29.718Z,99.90
2022-08-05T17:18:54.698Z,99.90
2022-08-05T17:21:23.491Z,99.90
2022-08-05T17:24:05.071Z,99.90
2022-08-05T17:26:35.256Z,99.90
2022-08-05T17:29:04.363Z,99.90
2022-08-05T17:31:41.287Z,99.90
2022-08-05T17:34:30.238Z,99.90
2022-08-05T17:36:59.837Z,99.90
2022-08-05T17:39:33.389Z,99.90
2022-08-05T17:42:17.541Z,99.90
2022-08-05T17:44:50.899Z,99.90
2022-08-05T17:47:22.570Z,99.90
2022-08-05T17:49:59.780Z,99.90
2022-08-05T17:52:33.959Z,99.90
2022-08-05T17:55:00.697Z,99.90
2022-08-05T17:57:29.701Z,99.90
2022-08-05T18:00:03.548Z,99.90
2022-08-05T18:02:32.653Z,99.90
2022-08-05T18:05:02.915Z,99.90
2022-08-05T18:07:41.218Z,99.90
2022-08-05T18:10:10.225Z,99.90
2022-08-05T18:12:38.004Z,99.90
2022-08-05T18:15:05.093Z,99.90
2022-08-05T18:17:58.739Z,99.90
2022-08-05T18:20:19.784Z,99.90
2022-08-05T18:22:57.548Z,99.90
2022-08-05T18:25:25.121Z,99.90
2022-08-05T18:27:52.805Z,99.90
2022-08-05T18:30:19.523Z,99.90
2022-08-05T18:32:53.383Z,99.90
2022-08-05T18:35:28.282Z,99.90
2022-08-05T18:38:13.343Z,99.90
2022-08-05T18:41:56.549Z,99.90
2022-08-05T18:43:37.978Z,99.90
2022-08-05T18:46:09.889Z,99.90
2022-08-05T18:48:36.712Z,99.90
2022-08-05T18:52:06.257Z,99.90
2022-08-05T18:54:16.160Z,99.90
2022-08-05T18:56:51.277Z,99.90
2022-08-05T18:59:42.693Z,99.90
2022-08-05T19:02:26.260Z,99.90
2022-08-05T19:05:02.314Z,99.90
2022-08-05T19:07:45.356Z,99.90
2022-08-05T19:10:16.731Z,99.90
2022-08-05T19:12:43.837Z,99.90
2022-08-05T19:15:54.707Z,99.90
2022-08-05T19:18:09.181Z,99.90
2022-08-05T19:20:41.360Z,99.90
2022-08-05T19:24:06.101Z,99.90
2022-08-05T19:26:01.027Z,99.90
2022-08-05T19:28:28.861Z,99.90
2022-08-05T19:30:56.056Z,99.90
2022-08-05T19:33:35.846Z,99.90
2022-08-05T19:36:06.950Z,99.90
2022-08-05T19:38:36.826Z,99.90
2022-08-05T19:41:09.156Z,99.90
2022-08-05T19:44:06.700Z,99.90
2022-08-05T19:46:30.658Z,1.40
2022-08-05T19:49:01.175Z,1.00
2022-08-05T19:52:06.181Z,1.00
2022-08-05T19:54:21.708Z,1.00
2022-08-05T19:56:55.330Z,1.00
2022-08-05T20:00:00.590Z,1.00
2022-08-05T20:02:08.597Z,1.00
2022-08-05T20:04:35.239Z,1.00
2022-08-05T20:07:02.510Z,1.00
2022-08-05T20:09:29.102Z,1.00
2022-08-05T20:12:15.697Z,1.00
2022-08-05T20:14:42.378Z,1.00
2022-08-05T20:17:10.057Z,99.90
2022-08-05T20:19:43.007Z,99.90
2022-08-05T20:22:09.861Z,99.90
2022-08-05T20:24:36.530Z,99.90
2022-08-05T20:27:11.398Z,99.90
2022-08-05T20:29:38.382Z,99.90
2022-08-05T20:32:06.547Z,99.90
2022-08-05T20:34:33.166Z,99.90
2022-08-05T20:37:00.820Z,99.90
2022-08-05T20:39:35.646Z,99.90
2022-08-05T20:42:04.111Z,99.90
2022-08-05T20:44:32.698Z,99.90
2022-08-05T20:47:04.844Z,99.90
2022-08-05T20:49:39.336Z,99.90
2022-08-05T20:52:06.490Z,99.90
2022-08-05T20:54:43.514Z,99.90
2022-08-05T20:57:24.650Z,99.90
2022-08-05T21:00:20.346Z,99.90
2022-08-05T21:02:57.139Z,99.90
2022-08-05T21:05:24.312Z,99.90
2022-08-05T21:07:52.376Z,99.90
2022-08-05T21:10:19.297Z,99.90
2022-08-05T21:13:08.997Z,99.90
2022-08-05T21:15:32.952Z,99.90
2022-08-05T21:18:00.802Z,99.90
2022-08-05T21:20:33.460Z,99.90
2022-08-05T21:23:00.808Z,1.40
2022-08-05T21:25:34.063Z,1.00
2022-08-05T21:28:01.304Z,1.00
2022-08-05T21:30:27.933Z,1.40
2022-08-05T21:32:55.310Z,1.00
2022-08-05T21:35:29.850Z,1.00
2022-08-05T21:37:57.369Z,1.00
2022-08-05T21:40:23.996Z,1.00
2022-08-05T21:42:51.848Z,1.00
2022-08-05T21:45:24.727Z,1.00
2022-08-05T21:47:55.985Z,1.00
2022-08-05T21:50:25.149Z,1.00
2022-08-05T21:52:51.766Z,1.00
2022-08-05T21:55:42.875Z,1.00
2022-08-05T21:58:05.961Z,1.00
2022-08-05T22:00:32.565Z,1.00
2022-08-05T22:02:59.730Z,1.00
2022-08-05T22:05:27.229Z,1.00
2022-08-05T22:07:59.031Z,1.00
2022-08-05T22:10:28.669Z,1.00
2022-08-05T22:14:04.857Z,1.00
2022-08-05T22:16:01.660Z,1.00
2022-08-05T22:18:32.919Z,1.00
2022-08-05T22:20:59.552Z,1.00
2022-08-05T22:24:03.062Z,1.00
2022-08-05T22:26:53.975Z,1.00
2022-08-05T22:29:26.811Z,1.00
2022-08-05T22:32:03.076Z,1.00
2022-08-05T22:34:30.231Z,1.00
2022-08-05T22:36:58.553Z,1.00
2022-08-05T22:39:30.975Z,1.00
2022-08-05T22:42:10.231Z,1.00
2022-08-05T22:44:38.560Z,1.00
2022-08-05T22:47:05.949Z,1.00
2022-08-05T22:50:21.778Z,1.00
2022-08-05T22:52:30.291Z,1.00
2022-08-05T22:54:59.501Z,1.00
2022-08-05T22:57:26.652Z,1.00
2022-08-05T22:59:54.316Z,1.00
2022-08-05T23:02:29.330Z,1.00
2022-08-05T23:04:57.206Z,1.00
2022-08-05T23:07:23.847Z,1.00
2022-08-05T23:10:01.513Z,1.00
2022-08-05T23:12:32.546Z,1.00
2022-08-05T23:15:01.305Z,1.00
2022-08-05T23:17:34.249Z,1.00
2022-08-05T23:20:10.198Z,1.00
2022-08-05T23:22:43.714Z,1.00
2022-08-05T23:25:50.310Z,1.00
2022-08-05T23:28:01.148Z,1.00
2022-08-05T23:30:29.144Z,1.00
2022-08-05T23:32:57.821Z,1.00
2022-08-05T23:35:25.453Z,1.00
2022-08-05T23:37:55.293Z,1.00
2022-08-05T23:40:27.218Z,1.00
2022-08-05T23:42:54.061Z,1.00
2022-08-05T23:45:23.540Z,1.00
2022-08-05T23:47:53.618Z,1.00
2022-08-05T23:50:20.541Z,1.00
2022-08-05T23:52:50.124Z,1.00
2022-08-05T23:55:18.907Z,1.00
2022-08-05T23:57:51.281Z,1.00
